Flight Track Log - Related Links

Times and Time Zones

All times are in EDT time to prevent confusion due to time zone crossing. See the JZA8145 flight status page for this flight to view local times or setup timezone preferences in your user account.

Time Position Orientation Groundspeed Altitude Reporting Facility
EDT Latitude Longitude Course Direction KTS MPH feet Rate Location/Type
Thu 03:08:18 PM 53.2667 -113.6000 169° South 140 161 2,900  Level Edmonton Center
Thu 03:09:18 PM 53.2333 -113.5333 130° Southeast 150 173 4,400 1,450 Climbing Edmonton Center
Thu 03:10:18 PM 53.2000 -113.5000 149° Southeast 150 173 5,800 1,300 Climbing Edmonton Center
Thu 03:11:18 PM 53.1500 -113.5167 191° South 180 207 7,000 1,200 Climbing Edmonton Center
Thu 03:12:00 PM 53.0408 -113.8080 169° South  Level FlightAware Approximate
Thu 03:12:18 PM 53.1000 -113.5167 180° South 190 219 8,200  Level Edmonton Center
Thu 03:13:00 PM 52.9699 -113.7844 169° South  Level FlightAware Approximate
Thu 03:13:18 PM 53.0500 -113.5333 191° South 200 230 9,600  Level Edmonton Center
Thu 03:14:18 PM 53.0000 -113.5167 169° South 200 230 10,900 1,300 Climbing Edmonton Center
Thu 03:15:18 PM 52.9333 -113.5333 189° South 200 230 12,200 1,300 Climbing Edmonton Center
Thu 03:16:18 PM 52.8667 -113.5500 189° South 210 242 13,500 1,300 Climbing Edmonton Center
Thu 03:17:18 PM 52.8000 -113.5333 171° South 210 242 14,800 1,300 Climbing Edmonton Center
Thu 03:18:18 PM 52.7500 -113.5500 191° South 220 253 16,100 1,100 Climbing Edmonton Center
Thu 03:19:18 PM 52.6833 -113.5333 171° South 210 242 17,000 450 Climbing Edmonton Center
Thu 03:20:18 PM 52.6167 -113.5500 189° South 250 288 17,000  Level Edmonton Center
Thu 03:21:18 PM 52.5500 -113.5667 189° South 270 311 17,000  Level Edmonton Center
Thu 03:22:18 PM 52.4667 -113.5833 187° South 290 334 17,000  Level Edmonton Center
Thu 03:23:18 PM 52.3833 -113.5667 173° South 290 334 17,000  Level Edmonton Center
Thu 03:24:18 PM 52.3000 -113.5667 180° South 290 334 17,000  Level Edmonton Center
Thu 03:25:18 PM 52.2333 -113.5833 189° South 290 334 17,000  Level Edmonton Center
Thu 03:26:18 PM 52.1333 -113.6000 186° South 290 334 17,000  Level Edmonton Center
Thu 03:27:18 PM 52.0500 -113.6000 180° South 290 334 17,000  Level Edmonton Center
Thu 03:28:18 PM 51.9667 -113.5833 173° South 290 334 17,000 -50 Level Edmonton Center
Thu 03:29:18 PM 51.8833 -113.6000 187° South 290 334 16,900 -900 Descending Edmonton Center
Thu 03:30:18 PM 51.8000 -113.6167 187° South 300 345 15,200 -1,850 Descending Edmonton Center
Thu 03:31:18 PM 51.7333 -113.6500 197° South 300 345 13,200 -1,950 Descending Edmonton Center
Thu 03:32:18 PM 51.6333 -113.6833 192° South 300 345 11,300 -1,500 Descending Edmonton Center
Thu 03:33:18 PM 51.5833 -113.7333 212° Southwest 240 276 10,200 -800 Descending Edmonton Center
Thu 03:34:18 PM 51.5333 -113.7667 203° Southwest 210 242 9,700 -550 Descending Edmonton Center
Thu 03:35:18 PM 51.4667 -113.8500 218° Southwest 220 253 9,100 -550 Descending Edmonton Center
Thu 03:36:18 PM 51.4333 -113.8833 212° Southwest 210 242 8,600 -650 Descending Edmonton Center
Thu 03:37:18 PM 51.3833 -113.9333 212° Southwest 220 253 7,800 -700 Descending Edmonton Center
Thu 03:38:18 PM 51.3333 -114.0000 220° Southwest 210 242 7,200 -500 Descending Edmonton Center
Thu 03:39:18 PM 51.2833 -114.0500 212° Southwest 190 219 6,800 -650 Descending Edmonton Center
Thu 03:40:18 PM 51.2333 -114.0333 168° South 200 230 5,900 -900 Descending Edmonton Center

Login

Don't have an account? Register now (free) for customized features, flight alerts, and more!